sensor_id;sensor_type;location;lat;lon;timestamp;temperature;humidity
64987;DHT22;67903;52.108;9.358;2024-01-30T00:01:46;2.50;90.00
64987;DHT22;67903;52.108;9.358;2024-01-30T00:04:32;2.50;90.30
64987;DHT22;67903;52.108;9.358;2024-01-30T00:07:18;2.50;90.40
64987;DHT22;67903;52.108;9.358;2024-01-30T00:10:03;2.50;90.50
64987;DHT22;67903;52.108;9.358;2024-01-30T00:12:51;2.50;90.20
64987;DHT22;67903;52.108;9.358;2024-01-30T00:15:37;2.50;90.20
64987;DHT22;67903;52.108;9.358;2024-01-30T00:18:23;2.50;90.60
64987;DHT22;67903;52.108;9.358;2024-01-30T00:21:09;2.50;90.50
64987;DHT22;67903;52.108;9.358;2024-01-30T00:23:54;2.50;90.30
64987;DHT22;67903;52.108;9.358;2024-01-30T00:26:40;2.50;90.30
64987;DHT22;67903;52.108;9.358;2024-01-30T00:29:25;2.50;90.40
64987;DHT22;67903;52.108;9.358;2024-01-30T00:32:15;2.50;90.50
64987;DHT22;67903;52.108;9.358;2024-01-30T00:35:01;2.40;90.60
64987;DHT22;67903;52.108;9.358;2024-01-30T00:37:47;2.40;90.60
64987;DHT22;67903;52.108;9.358;2024-01-30T00:40:32;2.40;90.60
64987;DHT22;67903;52.108;9.358;2024-01-30T00:43:18;2.40;90.60
64987;DHT22;67903;52.108;9.358;2024-01-30T00:46:05;2.40;90.40
64987;DHT22;67903;52.108;9.358;2024-01-30T00:48:50;2.40;90.70
64987;DHT22;67903;52.108;9.358;2024-01-30T00:51:36;2.30;90.60
64987;DHT22;67903;52.108;9.358;2024-01-30T00:54:21;2.30;90.70
64987;DHT22;67903;52.108;9.358;2024-01-30T00:57:07;2.30;91.00
64987;DHT22;67903;52.108;9.358;2024-01-30T00:59:53;2.30;91.10
64987;DHT22;67903;52.108;9.358;2024-01-30T01:02:38;2.30;91.00
64987;DHT22;67903;52.108;9.358;2024-01-30T01:05:27;2.30;91.20
64987;DHT22;67903;52.108;9.358;2024-01-30T01:08:12;2.30;91.20
64987;DHT22;67903;52.108;9.358;2024-01-30T01:10:58;2.30;91.40
64987;DHT22;67903;52.108;9.358;2024-01-30T01:13:43;2.30;91.30
64987;DHT22;67903;52.108;9.358;2024-01-30T01:16:29;2.20;91.20
64987;DHT22;67903;52.108;9.358;2024-01-30T01:19:15;2.20;91.40
64987;DHT22;67903;52.108;9.358;2024-01-30T01:22:00;2.20;91.30
64987;DHT22;67903;52.108;9.358;2024-01-30T01:24:46;2.20;91.60
64987;DHT22;67903;52.108;9.358;2024-01-30T01:27:31;2.20;91.60
64987;DHT22;67903;52.108;9.358;2024-01-30T01:30:18;2.20;91.80
64987;DHT22;67903;52.108;9.358;2024-01-30T01:33:06;2.20;91.90
64987;DHT22;67903;52.108;9.358;2024-01-30T01:35:52;2.20;91.90
64987;DHT22;67903;52.108;9.358;2024-01-30T01:38:38;2.20;92.00
64987;DHT22;67903;52.108;9.358;2024-01-30T01:41:24;2.30;92.00
64987;DHT22;67903;52.108;9.358;2024-01-30T01:44:09;2.30;92.20
64987;DHT22;67903;52.108;9.358;2024-01-30T01:46:56;2.30;92.30
64987;DHT22;67903;52.108;9.358;2024-01-30T01:49:42;2.30;92.30
64987;DHT22;67903;52.108;9.358;2024-01-30T01:52:28;2.30;92.30
64987;DHT22;67903;52.108;9.358;2024-01-30T01:55:16;2.30;92.50
64987;DHT22;67903;52.108;9.358;2024-01-30T01:58:03;2.20;92.60
64987;DHT22;67903;52.108;9.358;2024-01-30T02:00:48;2.30;92.70
64987;DHT22;67903;52.108;9.358;2024-01-30T02:03:35;2.30;92.70
64987;DHT22;67903;52.108;9.358;2024-01-30T02:06:21;2.30;92.40
64987;DHT22;67903;52.108;9.358;2024-01-30T02:09:06;2.30;92.20
64987;DHT22;67903;52.108;9.358;2024-01-30T02:11:52;2.30;92.10
64987;DHT22;67903;52.108;9.358;2024-01-30T02:14:48;2.40;91.90
64987;DHT22;67903;52.108;9.358;2024-01-30T02:17:34;2.30;92.00
64987;DHT22;67903;52.108;9.358;2024-01-30T02:20:21;2.40;91.90
64987;DHT22;67903;52.108;9.358;2024-01-30T02:23:09;2.40;91.80
64987;DHT22;67903;52.108;9.358;2024-01-30T02:25:55;2.40;91.70
64987;DHT22;67903;52.108;9.358;2024-01-30T02:28:40;2.30;91.50
64987;DHT22;67903;52.108;9.358;2024-01-30T02:31:26;2.30;91.80
64987;DHT22;67903;52.108;9.358;2024-01-30T02:34:13;2.30;91.80
64987;DHT22;67903;52.108;9.358;2024-01-30T02:36:58;2.30;91.90
64987;DHT22;67903;52.108;9.358;2024-01-30T02:39:44;2.30;91.90
64987;DHT22;67903;52.108;9.358;2024-01-30T02:42:29;2.30;91.80
64987;DHT22;67903;52.108;9.358;2024-01-30T02:45:15;2.30;91.80
64987;DHT22;67903;52.108;9.358;2024-01-30T02:48:00;2.30;91.70
64987;DHT22;67903;52.108;9.358;2024-01-30T02:50:46;2.30;91.80
64987;DHT22;67903;52.108;9.358;2024-01-30T02:53:32;2.30;91.80
64987;DHT22;67903;52.108;9.358;2024-01-30T02:56:17;2.30;91.60
64987;DHT22;67903;52.108;9.358;2024-01-30T02:59:02;2.20;91.70
64987;DHT22;67903;52.108;9.358;2024-01-30T03:01:48;2.20;92.00
64987;DHT22;67903;52.108;9.358;2024-01-30T03:04:34;2.20;92.20
64987;DHT22;67903;52.108;9.358;2024-01-30T03:07:20;2.20;92.50
64987;DHT22;67903;52.108;9.358;2024-01-30T03:10:05;2.20;92.70
64987;DHT22;67903;52.108;9.358;2024-01-30T03:12:51;2.20;93.00
64987;DHT22;67903;52.108;9.358;2024-01-30T03:15:37;2.20;93.00
64987;DHT22;67903;52.108;9.358;2024-01-30T03:18:22;2.30;93.00
64987;DHT22;67903;52.108;9.358;2024-01-30T03:21:08;2.20;93.00
64987;DHT22;67903;52.108;9.358;2024-01-30T03:23:53;2.20;93.20
64987;DHT22;67903;52.108;9.358;2024-01-30T03:26:39;2.30;93.50
64987;DHT22;67903;52.108;9.358;2024-01-30T03:29:24;2.30;93.30
64987;DHT22;67903;52.108;9.358;2024-01-30T03:32:10;2.30;93.40
64987;DHT22;67903;52.108;9.358;2024-01-30T03:34:55;2.20;93.60
64987;DHT22;67903;52.108;9.358;2024-01-30T03:37:41;2.20;93.90
64987;DHT22;67903;52.108;9.358;2024-01-30T03:40:26;2.20;93.90
64987;DHT22;67903;52.108;9.358;2024-01-30T03:43:12;2.30;94.20
64987;DHT22;67903;52.108;9.358;2024-01-30T03:45:57;2.20;94.00
64987;DHT22;67903;52.108;9.358;2024-01-30T03:48:43;2.20;93.70
64987;DHT22;67903;52.108;9.358;2024-01-30T03:51:28;2.10;93.70
64987;DHT22;67903;52.108;9.358;2024-01-30T03:54:14;2.30;94.10
64987;DHT22;67903;52.108;9.358;2024-01-30T03:56:59;2.30;94.30
64987;DHT22;67903;52.108;9.358;2024-01-30T03:59:45;2.30;93.80
64987;DHT22;67903;52.108;9.358;2024-01-30T04:02:31;2.30;93.70
64987;DHT22;67903;52.108;9.358;2024-01-30T04:05:16;2.30;93.60
64987;DHT22;67903;52.108;9.358;2024-01-30T04:08:02;2.30;93.70
64987;DHT22;67903;52.108;9.358;2024-01-30T04:10:48;2.20;93.80
64987;DHT22;67903;52.108;9.358;2024-01-30T04:13:33;2.20;93.80
64987;DHT22;67903;52.108;9.358;2024-01-30T04:16:22;2.20;93.60
64987;DHT22;67903;52.108;9.358;2024-01-30T04:19:08;2.20;93.70
64987;DHT22;67903;52.108;9.358;2024-01-30T04:21:53;2.10;93.80
64987;DHT22;67903;52.108;9.358;2024-01-30T04:24:39;2.10;94.10
64987;DHT22;67903;52.108;9.358;2024-01-30T04:27:25;2.10;94.10
64987;DHT22;67903;52.108;9.358;2024-01-30T04:30:10;2.10;94.00
64987;DHT22;67903;52.108;9.358;2024-01-30T04:32:56;2.00;94.10
64987;DHT22;67903;52.108;9.358;2024-01-30T04:35:41;2.00;94.20
64987;DHT22;67903;52.108;9.358;2024-01-30T04:38:27;2.00;94.10
64987;DHT22;67903;52.108;9.358;2024-01-30T04:41:12;2.00;94.10
64987;DHT22;67903;52.108;9.358;2024-01-30T04:43:58;2.00;94.10
64987;DHT22;67903;52.108;9.358;2024-01-30T04:46:43;2.00;94.20
64987;DHT22;67903;52.108;9.358;2024-01-30T04:49:29;1.90;94.30
64987;DHT22;67903;52.108;9.358;2024-01-30T04:52:14;1.90;94.50
64987;DHT22;67903;52.108;9.358;2024-01-30T04:55:00;1.90;94.50
64987;DHT22;67903;52.108;9.358;2024-01-30T04:57:46;1.90;94.50
64987;DHT22;67903;52.108;9.358;2024-01-30T05:00:31;1.90;94.40
64987;DHT22;67903;52.108;9.358;2024-01-30T05:03:19;2.00;94.80
64987;DHT22;67903;52.108;9.358;2024-01-30T05:06:05;2.10;95.20
64987;DHT22;67903;52.108;9.358;2024-01-30T05:08:50;2.20;95.10
64987;DHT22;67903;52.108;9.358;2024-01-30T05:11:40;2.20;94.80
64987;DHT22;67903;52.108;9.358;2024-01-30T05:14:25;2.20;94.70
64987;DHT22;67903;52.108;9.358;2024-01-30T05:17:10;2.20;94.90
64987;DHT22;67903;52.108;9.358;2024-01-30T05:19:57;2.20;94.80
64987;DHT22;67903;52.108;9.358;2024-01-30T05:22:43;2.10;94.80
64987;DHT22;67903;52.108;9.358;2024-01-30T05:25:30;2.10;94.90
64987;DHT22;67903;52.108;9.358;2024-01-30T05:28:16;2.10;95.10
64987;DHT22;67903;52.108;9.358;2024-01-30T05:31:01;2.20;95.40
64987;DHT22;67903;52.108;9.358;2024-01-30T05:33:47;2.20;95.10
64987;DHT22;67903;52.108;9.358;2024-01-30T05:36:32;2.20;94.90
64987;DHT22;67903;52.108;9.358;2024-01-30T05:39:18;2.20;94.90
64987;DHT22;67903;52.108;9.358;2024-01-30T05:42:04;2.10;94.90
64987;DHT22;67903;52.108;9.358;2024-01-30T05:44:49;2.10;94.90
64987;DHT22;67903;52.108;9.358;2024-01-30T05:47:35;2.00;95.30
64987;DHT22;67903;52.108;9.358;2024-01-30T05:50:20;2.00;95.20
64987;DHT22;67903;52.108;9.358;2024-01-30T05:53:08;2.00;95.50
64987;DHT22;67903;52.108;9.358;2024-01-30T05:55:53;2.00;95.60
64987;DHT22;67903;52.108;9.358;2024-01-30T05:58:39;2.00;95.80
64987;DHT22;67903;52.108;9.358;2024-01-30T06:01:24;2.00;95.80
64987;DHT22;67903;52.108;9.358;2024-01-30T06:04:10;2.00;95.70
64987;DHT22;67903;52.108;9.358;2024-01-30T06:06:56;2.00;95.50
64987;DHT22;67903;52.108;9.358;2024-01-30T06:09:41;2.00;95.50
64987;DHT22;67903;52.108;9.358;2024-01-30T06:12:28;2.00;95.50
64987;DHT22;67903;52.108;9.358;2024-01-30T06:15:13;2.00;95.40
64987;DHT22;67903;52.108;9.358;2024-01-30T06:17:59;2.00;95.80
64987;DHT22;67903;52.108;9.358;2024-01-30T06:20:44;2.00;95.80
64987;DHT22;67903;52.108;9.358;2024-01-30T06:23:30;2.10;95.70
64987;DHT22;67903;52.108;9.358;2024-01-30T06:26:16;2.00;95.60
64987;DHT22;67903;52.108;9.358;2024-01-30T06:29:01;2.00;95.70
64987;DHT22;67903;52.108;9.358;2024-01-30T06:31:47;2.00;95.70
64987;DHT22;67903;52.108;9.358;2024-01-30T06:34:32;2.00;95.70
64987;DHT22;67903;52.108;9.358;2024-01-30T06:37:17;2.10;95.50
64987;DHT22;67903;52.108;9.358;2024-01-30T06:40:03;2.10;95.70
64987;DHT22;67903;52.108;9.358;2024-01-30T06:42:50;2.10;95.70
64987;DHT22;67903;52.108;9.358;2024-01-30T06:45:36;2.10;95.90
64987;DHT22;67903;52.108;9.358;2024-01-30T06:48:21;2.10;95.80
64987;DHT22;67903;52.108;9.358;2024-01-30T06:51:07;2.20;95.90
64987;DHT22;67903;52.108;9.358;2024-01-30T06:53:52;2.20;96.30
64987;DHT22;67903;52.108;9.358;2024-01-30T06:56:38;2.20;96.00
64987;DHT22;67903;52.108;9.358;2024-01-30T06:59:24;2.20;95.70
64987;DHT22;67903;52.108;9.358;2024-01-30T07:02:10;2.20;95.80
64987;DHT22;67903;52.108;9.358;2024-01-30T07:04:55;2.30;95.70
64987;DHT22;67903;52.108;9.358;2024-01-30T07:07:41;2.30;95.70
64987;DHT22;67903;52.108;9.358;2024-01-30T07:10:26;2.30;95.70
64987;DHT22;67903;52.108;9.358;2024-01-30T07:13:12;2.30;95.50
64987;DHT22;67903;52.108;9.358;2024-01-30T07:15:57;2.30;95.50
64987;DHT22;67903;52.108;9.358;2024-01-30T07:18:43;2.30;95.70
64987;DHT22;67903;52.108;9.358;2024-01-30T07:21:29;2.40;95.70
64987;DHT22;67903;52.108;9.358;2024-01-30T07:24:15;2.40;95.70
64987;DHT22;67903;52.108;9.358;2024-01-30T07:27:00;2.40;95.70
64987;DHT22;67903;52.108;9.358;2024-01-30T07:29:46;2.50;95.70
64987;DHT22;67903;52.108;9.358;2024-01-30T07:32:31;2.50;95.60
64987;DHT22;67903;52.108;9.358;2024-01-30T07:35:17;2.50;95.40
64987;DHT22;67903;52.108;9.358;2024-01-30T07:38:02;2.50;95.50
64987;DHT22;67903;52.108;9.358;2024-01-30T07:40:48;2.50;95.60
64987;DHT22;67903;52.108;9.358;2024-01-30T07:43:33;2.50;95.70
64987;DHT22;67903;52.108;9.358;2024-01-30T07:46:19;2.50;95.50
64987;DHT22;67903;52.108;9.358;2024-01-30T07:49:04;2.60;95.50
64987;DHT22;67903;52.108;9.358;2024-01-30T07:51:50;2.80;95.20
64987;DHT22;67903;52.108;9.358;2024-01-30T07:54:36;2.80;94.60
64987;DHT22;67903;52.108;9.358;2024-01-30T07:57:24;2.80;94.40
64987;DHT22;67903;52.108;9.358;2024-01-30T08:00:10;2.90;94.40
64987;DHT22;67903;52.108;9.358;2024-01-30T08:02:56;3.00;94.20
64987;DHT22;67903;52.108;9.358;2024-01-30T08:05:42;3.00;93.90
64987;DHT22;67903;52.108;9.358;2024-01-30T08:08:28;3.10;93.80
64987;DHT22;67903;52.108;9.358;2024-01-30T08:11:13;3.10;93.40
64987;DHT22;67903;52.108;9.358;2024-01-30T08:13:59;3.10;93.30
64987;DHT22;67903;52.108;9.358;2024-01-30T08:16:44;3.30;92.80
64987;DHT22;67903;52.108;9.358;2024-01-30T08:19:30;3.30;92.70
64987;DHT22;67903;52.108;9.358;2024-01-30T08:22:15;3.30;92.50
64987;DHT22;67903;52.108;9.358;2024-01-30T08:25:00;3.30;92.50
64987;DHT22;67903;52.108;9.358;2024-01-30T08:27:47;3.40;92.60
64987;DHT22;67903;52.108;9.358;2024-01-30T08:30:32;3.40;92.50
64987;DHT22;67903;52.108;9.358;2024-01-30T08:33:18;3.50;92.30
64987;DHT22;67903;52.108;9.358;2024-01-30T08:36:03;3.50;92.30
64987;DHT22;67903;52.108;9.358;2024-01-30T08:38:49;3.60;91.90
64987;DHT22;67903;52.108;9.358;2024-01-30T08:41:34;3.70;91.60
64987;DHT22;67903;52.108;9.358;2024-01-30T08:44:20;3.80;91.20
64987;DHT22;67903;52.108;9.358;2024-01-30T08:47:05;3.90;91.00
64987;DHT22;67903;52.108;9.358;2024-01-30T08:49:51;3.90;90.70
64987;DHT22;67903;52.108;9.358;2024-01-30T08:52:37;3.90;90.70
64987;DHT22;67903;52.108;9.358;2024-01-30T08:55:22;3.90;90.70
64987;DHT22;67903;52.108;9.358;2024-01-30T08:58:08;4.00;90.80
64987;DHT22;67903;52.108;9.358;2024-01-30T09:00:54;4.00;90.70
64987;DHT22;67903;52.108;9.358;2024-01-30T09:03:39;4.10;90.80
64987;DHT22;67903;52.108;9.358;2024-01-30T09:06:26;4.10;90.60
64987;DHT22;67903;52.108;9.358;2024-01-30T09:09:13;4.10;90.60
64987;DHT22;67903;52.108;9.358;2024-01-30T09:12:00;4.20;90.40
64987;DHT22;67903;52.108;9.358;2024-01-30T09:14:49;4.30;90.00
64987;DHT22;67903;52.108;9.358;2024-01-30T09:17:35;4.40;90.00
64987;DHT22;67903;52.108;9.358;2024-01-30T09:20:20;4.40;89.90
64987;DHT22;67903;52.108;9.358;2024-01-30T09:23:07;4.50;89.50
64987;DHT22;67903;52.108;9.358;2024-01-30T09:25:53;4.50;89.50
64987;DHT22;67903;52.108;9.358;2024-01-30T09:28:38;4.70;89.10
64987;DHT22;67903;52.108;9.358;2024-01-30T09:31:25;4.70;88.60
64987;DHT22;67903;52.108;9.358;2024-01-30T09:34:11;4.90;88.20
64987;DHT22;67903;52.108;9.358;2024-01-30T09:36:57;5.00;87.90
64987;DHT22;67903;52.108;9.358;2024-01-30T09:39:42;5.00;87.70
64987;DHT22;67903;52.108;9.358;2024-01-30T09:42:35;5.20;87.30
64987;DHT22;67903;52.108;9.358;2024-01-30T09:45:24;5.30;86.60
64987;DHT22;67903;52.108;9.358;2024-01-30T09:48:10;5.30;86.50
64987;DHT22;67903;52.108;9.358;2024-01-30T09:50:57;5.40;85.90
64987;DHT22;67903;52.108;9.358;2024-01-30T09:53:43;5.50;85.40
64987;DHT22;67903;52.108;9.358;2024-01-30T09:56:31;5.50;85.30
64987;DHT22;67903;52.108;9.358;2024-01-30T09:59:17;5.50;85.40
64987;DHT22;67903;52.108;9.358;2024-01-30T10:02:02;5.60;85.10
64987;DHT22;67903;52.108;9.358;2024-01-30T10:04:51;5.70;85.10
64987;DHT22;67903;52.108;9.358;2024-01-30T10:07:36;5.90;84.70
64987;DHT22;67903;52.108;9.358;2024-01-30T10:10:22;6.00;84.30
64987;DHT22;67903;52.108;9.358;2024-01-30T10:13:10;6.00;83.80
64987;DHT22;67903;52.108;9.358;2024-01-30T10:15:55;6.10;83.90
64987;DHT22;67903;52.108;9.358;2024-01-30T10:18:42;6.10;83.30
64987;DHT22;67903;52.108;9.358;2024-01-30T10:21:30;6.30;82.90
64987;DHT22;67903;52.108;9.358;2024-01-30T10:24:15;6.40;82.20
64987;DHT22;67903;52.108;9.358;2024-01-30T10:27:01;6.50;81.90
64987;DHT22;67903;52.108;9.358;2024-01-30T10:29:48;6.50;81.90
64987;DHT22;67903;52.108;9.358;2024-01-30T10:32:34;6.60;81.60
64987;DHT22;67903;52.108;9.358;2024-01-30T10:35:20;6.60;81.20
64987;DHT22;67903;52.108;9.358;2024-01-30T10:38:08;6.70;81.20
64987;DHT22;67903;52.108;9.358;2024-01-30T10:40:57;6.80;81.30
64987;DHT22;67903;52.108;9.358;2024-01-30T10:44:02;6.90;80.60
64987;DHT22;67903;52.108;9.358;2024-01-30T10:46:53;7.00;79.80
64987;DHT22;67903;52.108;9.358;2024-01-30T10:49:41;7.00;80.00
64987;DHT22;67903;52.108;9.358;2024-01-30T10:52:28;7.00;79.90
64987;DHT22;67903;52.108;9.358;2024-01-30T10:55:16;7.00;79.60
64987;DHT22;67903;52.108;9.358;2024-01-30T10:58:03;7.10;79.20
64987;DHT22;67903;52.108;9.358;2024-01-30T11:00:50;7.10;79.00
64987;DHT22;67903;52.108;9.358;2024-01-30T11:03:37;7.20;79.20
64987;DHT22;67903;52.108;9.358;2024-01-30T11:06:23;7.20;79.00
64987;DHT22;67903;52.108;9.358;2024-01-30T11:09:13;7.40;78.40
64987;DHT22;67903;52.108;9.358;2024-01-30T11:12:02;7.40;78.30
64987;DHT22;67903;52.108;9.358;2024-01-30T11:14:48;7.50;78.00
64987;DHT22;67903;52.108;9.358;2024-01-30T11:20:30;7.50;77.20
64987;DHT22;67903;52.108;9.358;2024-01-30T11:23:17;7.50;77.50
64987;DHT22;67903;52.108;9.358;2024-01-30T11:26:04;7.50;77.90
64987;DHT22;67903;52.108;9.358;2024-01-30T11:28:52;7.50;77.70
64987;DHT22;67903;52.108;9.358;2024-01-30T11:31:38;7.50;77.80
64987;DHT22;67903;52.108;9.358;2024-01-30T11:34:24;7.40;78.10
64987;DHT22;67903;52.108;9.358;2024-01-30T11:37:12;7.30;78.30
64987;DHT22;67903;52.108;9.358;2024-01-30T11:39:58;7.20;78.50
64987;DHT22;67903;52.108;9.358;2024-01-30T11:42:45;7.20;79.00
64987;DHT22;67903;52.108;9.358;2024-01-30T11:45:33;7.30;78.80
64987;DHT22;67903;52.108;9.358;2024-01-30T11:48:19;7.40;78.30
64987;DHT22;67903;52.108;9.358;2024-01-30T11:51:05;7.50;78.30
64987;DHT22;67903;52.108;9.358;2024-01-30T11:53:51;7.60;77.60
64987;DHT22;67903;52.108;9.358;2024-01-30T11:56:37;7.80;77.00
64987;DHT22;67903;52.108;9.358;2024-01-30T11:59:24;7.90;77.00
64987;DHT22;67903;52.108;9.358;2024-01-30T12:02:09;8.00;76.60
64987;DHT22;67903;52.108;9.358;2024-01-30T12:05:04;8.00;76.20
64987;DHT22;67903;52.108;9.358;2024-01-30T12:07:50;8.10;76.00
64987;DHT22;67903;52.108;9.358;2024-01-30T12:10:36;8.10;75.90
64987;DHT22;67903;52.108;9.358;2024-01-30T12:13:21;8.10;75.70
64987;DHT22;67903;52.108;9.358;2024-01-30T12:16:07;8.00;76.20
64987;DHT22;67903;52.108;9.358;2024-01-30T12:19:00;8.00;76.20
64987;DHT22;67903;52.108;9.358;2024-01-30T12:21:46;8.00;75.90
64987;DHT22;67903;52.108;9.358;2024-01-30T12:24:32;8.10;75.70
64987;DHT22;67903;52.108;9.358;2024-01-30T12:27:18;8.10;75.80
64987;DHT22;67903;52.108;9.358;2024-01-30T12:30:08;8.10;75.90
64987;DHT22;67903;52.108;9.358;2024-01-30T12:32:54;8.20;75.70
64987;DHT22;67903;52.108;9.358;2024-01-30T12:35:39;8.20;75.70
64987;DHT22;67903;52.108;9.358;2024-01-30T12:38:36;8.20;75.40
64987;DHT22;67903;52.108;9.358;2024-01-30T12:41:22;8.30;75.20
64987;DHT22;67903;52.108;9.358;2024-01-30T12:44:14;8.40;75.10
64987;DHT22;67903;52.108;9.358;2024-01-30T12:47:03;8.50;75.20
64987;DHT22;67903;52.108;9.358;2024-01-30T12:49:48;8.60;74.90
64987;DHT22;67903;52.108;9.358;2024-01-30T12:52:35;8.60;74.00
64987;DHT22;67903;52.108;9.358;2024-01-30T12:55:20;8.70;73.90
64987;DHT22;67903;52.108;9.358;2024-01-30T12:58:06;8.80;73.70
64987;DHT22;67903;52.108;9.358;2024-01-30T13:00:52;8.70;73.60
64987;DHT22;67903;52.108;9.358;2024-01-30T13:03:39;8.60;73.90
64987;DHT22;67903;52.108;9.358;2024-01-30T13:06:25;8.60;74.30
64987;DHT22;67903;52.108;9.358;2024-01-30T13:09:10;8.60;74.30
64987;DHT22;67903;52.108;9.358;2024-01-30T13:11:56;8.60;74.50
64987;DHT22;67903;52.108;9.358;2024-01-30T13:14:41;8.60;74.70
64987;DHT22;67903;52.108;9.358;2024-01-30T13:17:28;8.60;74.60
64987;DHT22;67903;52.108;9.358;2024-01-30T13:20:14;8.60;74.80
64987;DHT22;67903;52.108;9.358;2024-01-30T13:23:05;8.50;75.40
64987;DHT22;67903;52.108;9.358;2024-01-30T13:25:51;8.50;75.30
64987;DHT22;67903;52.108;9.358;2024-01-30T13:28:37;8.40;75.70
64987;DHT22;67903;52.108;9.358;2024-01-30T13:31:23;8.40;76.20
64987;DHT22;67903;52.108;9.358;2024-01-30T13:34:08;8.50;75.40
64987;DHT22;67903;52.108;9.358;2024-01-30T13:36:54;8.50;75.50
64987;DHT22;67903;52.108;9.358;2024-01-30T13:39:39;8.50;75.80
64987;DHT22;67903;52.108;9.358;2024-01-30T13:42:24;8.50;75.90
64987;DHT22;67903;52.108;9.358;2024-01-30T13:45:10;8.40;76.20
64987;DHT22;67903;52.108;9.358;2024-01-30T13:47:56;8.40;76.20
64987;DHT22;67903;52.108;9.358;2024-01-30T13:50:42;8.30;76.60
64987;DHT22;67903;52.108;9.358;2024-01-30T13:53:27;8.30;76.80
64987;DHT22;67903;52.108;9.358;2024-01-30T13:56:13;8.30;76.90
64987;DHT22;67903;52.108;9.358;2024-01-30T13:58:59;8.30;76.90
64987;DHT22;67903;52.108;9.358;2024-01-30T14:01:46;8.30;77.10
64987;DHT22;67903;52.108;9.358;2024-01-30T14:04:32;8.30;77.10
64987;DHT22;67903;52.108;9.358;2024-01-30T14:07:17;8.30;77.40
64987;DHT22;67903;52.108;9.358;2024-01-30T14:10:03;8.30;77.50
64987;DHT22;67903;52.108;9.358;2024-01-30T14:12:55;8.30;77.80
64987;DHT22;67903;52.108;9.358;2024-01-30T14:15:42;8.20;77.80
64987;DHT22;67903;52.108;9.358;2024-01-30T14:18:27;8.20;78.10
64987;DHT22;67903;52.108;9.358;2024-01-30T14:21:12;8.20;78.10
64987;DHT22;67903;52.108;9.358;2024-01-30T14:23:58;8.20;78.40
64987;DHT22;67903;52.108;9.358;2024-01-30T14:26:44;8.20;78.10
64987;DHT22;67903;52.108;9.358;2024-01-30T14:29:29;8.20;78.50
64987;DHT22;67903;52.108;9.358;2024-01-30T14:32:14;8.20;78.60
64987;DHT22;67903;52.108;9.358;2024-01-30T14:35:00;8.30;78.40
64987;DHT22;67903;52.108;9.358;2024-01-30T14:37:46;8.20;78.40
64987;DHT22;67903;52.108;9.358;2024-01-30T14:40:31;8.30;77.60
64987;DHT22;67903;52.108;9.358;2024-01-30T14:43:17;8.30;77.80
64987;DHT22;67903;52.108;9.358;2024-01-30T14:46:03;8.30;78.30
64987;DHT22;67903;52.108;9.358;2024-01-30T14:48:51;8.20;78.70
64987;DHT22;67903;52.108;9.358;2024-01-30T14:51:37;8.20;78.90
64987;DHT22;67903;52.108;9.358;2024-01-30T14:54:23;8.20;78.70
64987;DHT22;67903;52.108;9.358;2024-01-30T14:57:09;8.20;79.10
64987;DHT22;67903;52.108;9.358;2024-01-30T14:59:54;8.20;79.20
64987;DHT22;67903;52.108;9.358;2024-01-30T15:02:40;8.20;79.60
64987;DHT22;67903;52.108;9.358;2024-01-30T15:05:25;8.10;80.00
64987;DHT22;67903;52.108;9.358;2024-01-30T15:08:11;8.10;79.80
64987;DHT22;67903;52.108;9.358;2024-01-30T15:10:57;8.10;80.10
64987;DHT22;67903;52.108;9.358;2024-01-30T15:13:43;8.10;80.40
64987;DHT22;67903;52.108;9.358;2024-01-30T15:16:30;8.10;80.00
64987;DHT22;67903;52.108;9.358;2024-01-30T15:19:16;8.20;80.00
64987;DHT22;67903;52.108;9.358;2024-01-30T15:22:01;8.10;80.30
64987;DHT22;67903;52.108;9.358;2024-01-30T15:24:48;8.00;80.70
64987;DHT22;67903;52.108;9.358;2024-01-30T15:27:33;8.10;80.80
64987;DHT22;67903;52.108;9.358;2024-01-30T15:30:19;8.10;80.50
64987;DHT22;67903;52.108;9.358;2024-01-30T15:33:05;8.10;80.60
64987;DHT22;67903;52.108;9.358;2024-01-30T15:35:50;8.00;81.00
64987;DHT22;67903;52.108;9.358;2024-01-30T15:38:36;8.00;81.10
64987;DHT22;67903;52.108;9.358;2024-01-30T15:41:21;8.00;81.20
64987;DHT22;67903;52.108;9.358;2024-01-30T15:44:07;8.10;81.10
64987;DHT22;67903;52.108;9.358;2024-01-30T15:46:53;8.10;81.20
64987;DHT22;67903;52.108;9.358;2024-01-30T15:49:39;8.10;81.40
64987;DHT22;67903;52.108;9.358;2024-01-30T15:52:24;8.10;81.20
64987;DHT22;67903;52.108;9.358;2024-01-30T15:55:10;8.10;81.20
64987;DHT22;67903;52.108;9.358;2024-01-30T15:57:57;8.20;81.10
64987;DHT22;67903;52.108;9.358;2024-01-30T16:00:43;8.20;81.20
64987;DHT22;67903;52.108;9.358;2024-01-30T16:03:28;8.10;81.50
64987;DHT22;67903;52.108;9.358;2024-01-30T16:06:14;8.20;81.50
64987;DHT22;67903;52.108;9.358;2024-01-30T16:09:00;8.20;81.60
64987;DHT22;67903;52.108;9.358;2024-01-30T16:11:45;8.20;81.90
64987;DHT22;67903;52.108;9.358;2024-01-30T16:14:31;8.30;81.80
64987;DHT22;67903;52.108;9.358;2024-01-30T16:17:19;8.30;81.40
64987;DHT22;67903;52.108;9.358;2024-01-30T16:20:05;8.20;81.90
64987;DHT22;67903;52.108;9.358;2024-01-30T16:22:51;8.20;82.50
64987;DHT22;67903;52.108;9.358;2024-01-30T16:25:40;8.20;82.70
64987;DHT22;67903;52.108;9.358;2024-01-30T16:28:25;8.30;82.40
64987;DHT22;67903;52.108;9.358;2024-01-30T16:31:12;8.20;82.80
64987;DHT22;67903;52.108;9.358;2024-01-30T16:34:03;8.20;82.90
64987;DHT22;67903;52.108;9.358;2024-01-30T16:36:49;8.20;82.60
64987;DHT22;67903;52.108;9.358;2024-01-30T16:39:34;8.10;83.20
64987;DHT22;67903;52.108;9.358;2024-01-30T16:42:20;8.10;83.40
64987;DHT22;67903;52.108;9.358;2024-01-30T16:45:06;8.00;83.90
64987;DHT22;67903;52.108;9.358;2024-01-30T16:47:51;8.00;84.80
64987;DHT22;67903;52.108;9.358;2024-01-30T16:50:37;8.00;85.10
64987;DHT22;67903;52.108;9.358;2024-01-30T16:53:23;8.60;86.80
64987;DHT22;67903;52.108;9.358;2024-01-30T16:56:08;8.70;85.00
64987;DHT22;67903;52.108;9.358;2024-01-30T16:58:54;8.70;86.40
64987;DHT22;67903;52.108;9.358;2024-01-30T17:01:41;9.20;84.40
64987;DHT22;67903;52.108;9.358;2024-01-30T17:04:29;9.40;83.60
64987;DHT22;67903;52.108;9.358;2024-01-30T17:07:15;9.60;82.90
64987;DHT22;67903;52.108;9.358;2024-01-30T17:14:31;9.80;82.40
64987;DHT22;67903;52.108;9.358;2024-01-30T17:17:17;9.80;82.20
64987;DHT22;67903;52.108;9.358;2024-01-30T17:20:03;10.00;82.20
64987;DHT22;67903;52.108;9.358;2024-01-30T17:22:49;9.90;82.00
64987;DHT22;67903;52.108;9.358;2024-01-30T17:25:36;10.00;81.60
64987;DHT22;67903;52.108;9.358;2024-01-30T17:28:22;10.00;81.50
64987;DHT22;67903;52.108;9.358;2024-01-30T17:31:08;10.10;81.00
64987;DHT22;67903;52.108;9.358;2024-01-30T17:33:53;10.00;81.00
64987;DHT22;67903;52.108;9.358;2024-01-30T17:36:39;10.00;81.30
64987;DHT22;67903;52.108;9.358;2024-01-30T17:39:24;10.00;80.90
64987;DHT22;67903;52.108;9.358;2024-01-30T17:42:10;10.10;80.00
64987;DHT22;67903;52.108;9.358;2024-01-30T17:44:55;10.10;79.50
64987;DHT22;67903;52.108;9.358;2024-01-30T17:47:41;10.10;79.60
64987;DHT22;67903;52.108;9.358;2024-01-30T17:50:27;10.10;79.80
64987;DHT22;67903;52.108;9.358;2024-01-30T17:53:13;10.10;79.70